createdAt,value
2022-08-28T00:00:40.254Z,15.25
2022-08-28T00:03:12.018Z,15.70
2022-08-28T00:05:40.625Z,15.50
2022-08-28T00:08:11.203Z,16.00
2022-08-28T00:10:40.176Z,15.88
2022-08-28T00:13:15.453Z,14.38
2022-08-28T00:15:43.161Z,14.35
2022-08-28T00:18:11.515Z,13.93
2022-08-28T00:20:40.208Z,14.05
2022-08-28T00:23:08.204Z,14.73
2022-08-28T00:25:36.383Z,13.95
2022-08-28T00:28:08.968Z,14.80
2022-08-28T00:30:48.290Z,14.20
2022-08-28T00:33:30.126Z,13.82
2022-08-28T00:35:58.234Z,13.05
2022-08-28T00:38:28.145Z,13.40
2022-08-28T00:40:59.615Z,14.05
2022-08-28T00:43:36.484Z,14.50
2022-08-28T00:46:07.961Z,13.65
2022-08-28T00:48:37.222Z,15.77
2022-08-28T00:51:25.005Z,15.00
2022-08-28T00:53:58.570Z,14.65
2022-08-28T00:56:29.634Z,13.68
2022-08-28T00:59:02.058Z,14.35
2022-08-28T01:01:30.014Z,13.63
2022-08-28T01:03:58.145Z,13.85
2022-08-28T01:06:25.858Z,14.15
2022-08-28T01:08:54.451Z,13.68
2022-08-28T01:11:22.470Z,13.15
2022-08-28T01:13:54.324Z,13.70
2022-08-28T01:16:23.415Z,13.50
2022-08-28T01:19:00.592Z,12.85
2022-08-28T01:21:56.240Z,12.77
2022-08-28T01:24:24.577Z,12.48
2022-08-28T01:26:52.321Z,13.48
2022-08-28T01:29:20.901Z,13.40
2022-08-28T01:31:48.884Z,13.57
2022-08-28T01:34:16.629Z,13.77
2022-08-28T01:36:44.293Z,13.23
2022-08-28T01:39:30.386Z,13.05
2022-08-28T01:41:59.625Z,13.20
2022-08-28T01:44:28.551Z,13.13
2022-08-28T01:46:58.793Z,12.60
2022-08-28T01:49:29.410Z,12.88
2022-08-28T01:51:58.106Z,12.80
2022-08-28T01:54:27.111Z,12.45
2022-08-28T01:56:55.399Z,13.00
2022-08-28T01:59:23.759Z,14.10
2022-08-28T02:01:51.494Z,13.02
2022-08-28T02:04:19.229Z,14.02
2022-08-28T02:06:52.119Z,13.35
2022-08-28T02:09:19.859Z,13.75
2022-08-28T02:11:47.534Z,13.93
2022-08-28T02:14:16.092Z,13.45
2022-08-28T02:16:43.870Z,13.55
2022-08-28T02:19:12.154Z,13.73
2022-08-28T02:21:40.984Z,13.07
2022-08-28T02:24:09.025Z,12.95
2022-08-28T02:26:37.938Z,12.52
2022-08-28T02:29:06.473Z,12.63
2022-08-28T02:31:34.194Z,12.82
2022-08-28T02:34:01.890Z,12.77
2022-08-28T02:36:29.783Z,13.00
2022-08-28T02:38:57.966Z,12.52
2022-08-28T02:41:26.221Z,13.20
2022-08-28T02:43:54.980Z,13.52
2022-08-28T02:46:23.533Z,12.32
2022-08-28T02:48:51.394Z,12.57
2022-08-28T02:51:20.179Z,12.60
2022-08-28T02:53:47.918Z,12.90
2022-08-28T02:56:16.654Z,12.05
2022-08-28T02:58:44.742Z,12.90
2022-08-28T03:01:13.918Z,12.90
2022-08-28T03:03:42.566Z,12.60
2022-08-28T03:06:12.623Z,12.82
2022-08-28T03:08:42.303Z,12.13
2022-08-28T03:11:10.437Z,12.57
2022-08-28T03:13:38.622Z,12.93
2022-08-28T03:16:06.402Z,12.27
2022-08-28T03:18:34.280Z,12.75
2022-08-28T03:21:02.738Z,12.13
2022-08-28T03:23:31.826Z,12.32
2022-08-28T03:26:10.559Z,12.18
2022-08-28T03:28:42.992Z,12.35
2022-08-28T03:31:14.487Z,12.60
2022-08-28T03:33:43.814Z,12.80
2022-08-28T03:36:15.579Z,12.52
2022-08-28T03:38:43.735Z,13.02
2022-08-28T03:41:13.322Z,13.00
2022-08-28T03:43:42.474Z,11.77
2022-08-28T03:46:15.181Z,12.95
2022-08-28T03:48:44.782Z,12.23
2022-08-28T03:51:16.868Z,11.82
2022-08-28T03:53:45.913Z,11.40
2022-08-28T03:56:21.705Z,11.98
2022-08-28T03:58:52.657Z,11.02
2022-08-28T04:01:21.519Z,12.05
2022-08-28T04:03:49.544Z,12.07
2022-08-28T04:06:17.415Z,11.50
2022-08-28T04:08:45.294Z,11.23
2022-08-28T04:11:13.242Z,12.00
2022-08-28T04:13:42.045Z,11.40
2022-08-28T04:16:12.140Z,12.23
2022-08-28T04:18:42.198Z,11.57
2022-08-28T04:21:23.639Z,10.93
2022-08-28T04:23:51.976Z,11.00
2022-08-28T04:26:25.186Z,11.20
2022-08-28T04:28:55.136Z,11.20
2022-08-28T04:31:32.128Z,10.98
2022-08-28T04:34:02.598Z,10.32
2022-08-28T04:36:30.738Z,10.52
2022-08-28T04:38:59.457Z,10.55
2022-08-28T04:41:28.474Z,10.73
2022-08-28T04:43:57.798Z,10.45
2022-08-28T04:46:26.226Z,10.10
2022-08-28T04:48:59.654Z,9.55
2022-08-28T04:51:28.033Z,10.23
2022-08-28T04:53:56.104Z,10.35
2022-08-28T04:56:25.113Z,9.95
2022-08-28T04:58:52.758Z,10.25
2022-08-28T05:01:24.391Z,10.60
2022-08-28T05:03:58.681Z,9.80
2022-08-28T05:06:28.646Z,10.05
2022-08-28T05:09:01.545Z,9.82
2022-08-28T05:11:33.475Z,10.35
2022-08-28T05:14:04.578Z,10.57
2022-08-28T05:16:34.725Z,9.98
2022-08-28T05:19:03.238Z,10.18
2022-08-28T05:21:31.023Z,9.80
2022-08-28T05:23:59.192Z,9.82
2022-08-28T05:26:29.985Z,8.70
2022-08-28T05:28:59.950Z,9.77
2022-08-28T05:31:29.872Z,8.60
2022-08-28T05:33:59.426Z,8.27
2022-08-28T05:36:32.782Z,8.38
2022-08-28T05:39:04.590Z,8.35
2022-08-28T05:41:32.894Z,8.30
2022-08-28T05:44:03.790Z,9.30
2022-08-28T05:46:32.087Z,9.05
2022-08-28T05:49:00.516Z,8.25
2022-08-28T05:51:28.667Z,7.57
2022-08-28T05:53:57.725Z,8.00
2022-08-28T05:56:32.752Z,7.85
2022-08-28T05:59:03.166Z,8.40
2022-08-28T06:01:33.229Z,7.93
2022-08-28T06:04:23.322Z,8.60
2022-08-28T06:06:51.399Z,7.40
2022-08-28T06:09:23.274Z,8.25
2022-08-28T06:11:56.231Z,7.68
2022-08-28T06:14:25.755Z,7.20
2022-08-28T06:16:55.687Z,8.23
2022-08-28T06:19:25.462Z,7.85
2022-08-28T06:21:59.152Z,7.45
2022-08-28T06:24:28.763Z,7.40
2022-08-28T06:26:58.123Z,8.20
2022-08-28T06:29:27.617Z,7.40
2022-08-28T06:32:01.126Z,7.72
2022-08-28T06:34:29.998Z,7.47
2022-08-28T06:36:57.627Z,7.53
2022-08-28T06:39:25.402Z,7.10
2022-08-28T06:41:53.787Z,7.80
2022-08-28T06:44:23.023Z,6.78
2022-08-28T06:46:52.985Z,7.57
2022-08-28T06:49:21.508Z,7.25
2022-08-28T06:51:49.526Z,7.55
2022-08-28T06:54:22.161Z,7.30
2022-08-28T06:56:52.616Z,7.70
2022-08-28T06:59:20.621Z,7.95
2022-08-28T07:01:48.682Z,7.75
2022-08-28T07:04:16.707Z,7.50
2022-08-28T07:06:47.105Z,7.53
2022-08-28T07:09:16.280Z,7.40
2022-08-28T07:11:47.524Z,7.25
2022-08-28T07:14:15.419Z,7.13
2022-08-28T07:16:44.601Z,6.75
2022-08-28T07:19:14.160Z,6.88
2022-08-28T07:21:44.774Z,7.05
2022-08-28T07:24:15.478Z,6.88
2022-08-28T07:26:45.390Z,7.43
2022-08-28T07:29:14.486Z,7.50
2022-08-28T07:31:46.486Z,7.50
2022-08-28T07:34:15.771Z,6.95
2022-08-28T07:36:44.939Z,6.38
2022-08-28T07:39:14.354Z,6.53
2022-08-28T07:41:43.154Z,6.45
2022-08-28T07:44:32.291Z,6.47
2022-08-28T07:47:04.201Z,6.43
2022-08-28T07:49:34.295Z,6.13
2022-08-28T07:52:02.893Z,6.20
2022-08-28T07:54:30.542Z,5.85
2022-08-28T07:56:58.417Z,7.35
2022-08-28T07:59:26.174Z,6.22
2022-08-28T08:01:54.078Z,5.95
2022-08-28T08:04:24.262Z,6.00
2022-08-28T08:06:57.899Z,6.10
2022-08-28T08:09:27.384Z,6.75
2022-08-28T08:11:57.680Z,6.70
2022-08-28T08:14:25.812Z,5.88
2022-08-28T08:16:54.235Z,5.95
2022-08-28T08:19:22.233Z,6.68
2022-08-28T08:21:55.137Z,6.38
2022-08-28T08:24:26.936Z,6.13
2022-08-28T08:26:59.957Z,6.65
2022-08-28T08:29:38.869Z,5.82
2022-08-28T08:32:10.395Z,5.63
2022-08-28T08:34:45.923Z,6.18
2022-08-28T08:37:14.298Z,5.30
2022-08-28T08:39:43.624Z,5.85
2022-08-28T08:42:28.096Z,5.78
2022-08-28T08:44:59.254Z,5.90
2022-08-28T08:47:51.421Z,5.75
2022-08-28T08:50:24.784Z,5.63
2022-08-28T08:53:12.670Z,6.00
2022-08-28T08:55:50.045Z,5.82
2022-08-28T08:58:44.267Z,5.40
2022-08-28T09:01:31.456Z,5.40
2022-08-28T09:04:29.610Z,5.75
2022-08-28T09:07:19.090Z,5.70
2022-08-28T09:09:57.795Z,5.90
2022-08-28T09:12:35.119Z,5.57
2022-08-28T09:15:10.149Z,5.35
2022-08-28T09:17:44.804Z,5.53
2022-08-28T09:20:17.445Z,5.78
2022-08-28T09:22:48.234Z,5.70
2022-08-28T09:25:44.396Z,5.70
2022-08-28T09:28:18.019Z,5.45
2022-08-28T09:33:33.767Z,5.28
2022-08-28T09:36:31.596Z,5.10
2022-08-28T09:39:18.487Z,5.68
2022-08-28T09:42:10.878Z,5.18
2022-08-28T09:44:54.556Z,5.72
2022-08-28T09:50:22.696Z,5.38
2022-08-28T09:52:51.612Z,5.15
2022-08-28T09:55:47.133Z,5.90
2022-08-28T09:58:15.819Z,5.75
2022-08-28T10:01:02.937Z,5.95
2022-08-28T10:04:04.436Z,5.53
2022-08-28T10:06:37.124Z,5.30
2022-08-28T10:09:23.663Z,5.50
2022-08-28T10:12:40.253Z,5.45
2022-08-28T10:15:33.534Z,5.57
2022-08-28T10:18:22.273Z,5.32
2022-08-28T10:21:20.962Z,6.30
2022-08-28T10:23:48.875Z,5.40
2022-08-28T10:26:44.947Z,5.97
2022-08-28T10:29:45.352Z,6.38
2022-08-28T10:32:13.138Z,6.28
2022-08-28T10:35:07.394Z,6.35
2022-08-28T10:37:56.776Z,6.55
2022-08-28T10:40:49.187Z,6.70
2022-08-28T10:43:31.752Z,6.50
2022-08-28T10:46:09.750Z,6.57
2022-08-28T10:49:18.217Z,5.78
2022-08-28T10:51:54.226Z,5.68
2022-08-28T10:54:43.471Z,5.40
2022-08-28T10:57:29.379Z,5.72
2022-08-28T11:00:00.561Z,5.78
2022-08-28T11:02:30.179Z,5.78
2022-08-28T11:04:58.885Z,6.13
2022-08-28T11:07:37.134Z,5.55
2022-08-28T11:10:46.911Z,5.78
2022-08-28T11:13:51.601Z,5.50
2022-08-28T11:16:23.092Z,5.03
2022-08-28T11:19:33.648Z,5.68
2022-08-28T11:22:28.492Z,4.80
2022-08-28T11:25:04.418Z,5.55
2022-08-28T11:27:37.780Z,5.00
2022-08-28T11:30:11.630Z,4.70
2022-08-28T11:35:30.621Z,4.97
2022-08-28T11:37:59.087Z,4.53
2022-08-28T11:40:32.923Z,5.00
2022-08-28T11:43:16.716Z,4.97
2022-08-28T11:45:47.778Z,4.78
2022-08-28T11:48:35.441Z,4.80
2022-08-28T11:51:07.420Z,5.00
2022-08-28T11:53:45.399Z,4.80
2022-08-28T11:56:30.589Z,5.35
2022-08-28T11:59:35.683Z,5.18
2022-08-28T12:02:40.509Z,5.10
2022-08-28T12:05:16.157Z,5.45
2022-08-28T12:07:49.182Z,4.95
2022-08-28T12:10:23.121Z,5.03
2022-08-28T12:12:58.013Z,4.72
2022-08-28T12:15:29.657Z,5.45
2022-08-28T12:18:01.633Z,5.22
2022-08-28T12:20:38.789Z,6.13
2022-08-28T12:23:37.164Z,6.22
2022-08-28T12:26:21.211Z,5.63
2022-08-28T12:31:44.649Z,5.95
2022-08-28T12:37:04.123Z,6.18
2022-08-28T12:39:34.026Z,6.07
2022-08-28T12:42:03.567Z,5.55
2022-08-28T12:44:33.701Z,5.90
2022-08-28T12:47:01.543Z,5.82
2022-08-28T12:49:36.472Z,5.60
2022-08-28T12:52:10.892Z,5.40
2022-08-28T12:54:49.111Z,5.93
2022-08-28T12:57:20.693Z,6.18
2022-08-28T12:59:51.719Z,5.97
2022-08-28T13:02:25.606Z,5.82
2022-08-28T13:05:05.557Z,5.57
2022-08-28T13:07:45.232Z,6.00
2022-08-28T13:10:25.713Z,6.00
2022-08-28T13:13:05.195Z,6.35
2022-08-28T13:15:52.226Z,6.13
2022-08-28T13:18:43.641Z,6.60
2022-08-28T13:21:34.851Z,6.35
2022-08-28T13:24:22.054Z,6.07
2022-08-28T13:27:07.261Z,6.60
2022-08-28T13:29:36.074Z,6.10
2022-08-28T13:32:14.636Z,6.65
2022-08-28T13:34:47.615Z,6.30
2022-08-28T13:37:43.178Z,5.55
2022-08-28T13:40:30.167Z,5.82
2022-08-28T13:43:11.349Z,6.03
2022-08-28T13:45:43.361Z,5.47
2022-08-28T13:48:17.493Z,5.53
2022-08-28T13:50:49.382Z,6.05
2022-08-28T13:53:20.652Z,5.28
2022-08-28T13:55:50.515Z,5.88
2022-08-28T13:58:19.095Z,6.07
2022-08-28T14:00:50.561Z,5.75
2022-08-28T14:03:37.929Z,5.90
2022-08-28T14:06:14.188Z,6.10
2022-08-28T14:08:43.729Z,6.45
2022-08-28T14:11:13.245Z,6.35
2022-08-28T14:13:47.349Z,6.07
2022-08-28T14:16:24.988Z,5.57
2022-08-28T14:18:53.590Z,6.45
2022-08-28T14:21:22.219Z,6.50
2022-08-28T14:23:50.495Z,5.57
2022-08-28T14:26:18.439Z,5.93
2022-08-28T14:28:46.279Z,6.20
2022-08-28T14:31:14.899Z,5.75
2022-08-28T14:33:45.341Z,6.10
2022-08-28T14:36:18.226Z,6.25
2022-08-28T14:38:46.291Z,6.70
2022-08-28T14:41:15.012Z,6.15
2022-08-28T14:43:43.810Z,6.32
2022-08-28T14:46:20.857Z,5.85
2022-08-28T14:48:49.170Z,6.32
2022-08-28T14:51:18.378Z,6.15
2022-08-28T14:53:46.135Z,6.35
2022-08-28T14:56:13.860Z,5.95
2022-08-28T14:58:41.859Z,6.25
2022-08-28T15:01:09.680Z,5.60
2022-08-28T15:03:38.325Z,6.28
2022-08-28T15:06:09.209Z,5.97
2022-08-28T15:08:37.578Z,6.35
2022-08-28T15:11:18.511Z,5.80
2022-08-28T15:13:48.930Z,6.32
2022-08-28T15:16:20.120Z,6.40
2022-08-28T15:18:48.606Z,6.35
2022-08-28T15:21:22.592Z,6.68
2022-08-28T15:26:20.484Z,6.55
2022-08-28T15:28:48.885Z,7.38
2022-08-28T15:31:17.920Z,7.28
2022-08-28T15:33:45.679Z,7.75
2022-08-28T15:36:13.785Z,7.88
2022-08-28T15:39:00.144Z,7.50
2022-08-28T15:41:29.367Z,8.00
2022-08-28T15:44:02.537Z,7.90
2022-08-28T15:46:33.736Z,7.55
2022-08-28T15:49:03.875Z,7.05
2022-08-28T15:51:36.176Z,7.05
2022-08-28T15:54:03.991Z,7.68
2022-08-28T15:56:31.698Z,6.70
2022-08-28T15:58:59.514Z,6.63
2022-08-28T16:01:27.178Z,6.18
2022-08-28T16:03:54.877Z,6.60
2022-08-28T16:06:23.883Z,6.53
2022-08-28T16:08:51.544Z,6.47
2022-08-28T16:11:22.416Z,6.53
2022-08-28T16:13:51.805Z,6.55
2022-08-28T16:16:19.843Z,6.05
2022-08-28T16:18:48.222Z,5.93
2022-08-28T16:21:17.193Z,6.55
2022-08-28T16:23:45.249Z,6.20
2022-08-28T16:26:15.768Z,6.43
2022-08-28T16:28:44.795Z,6.57
2022-08-28T16:31:19.818Z,6.55
2022-08-28T16:33:49.920Z,6.88
2022-08-28T16:36:18.630Z,7.22
2022-08-28T16:38:49.806Z,6.85
2022-08-28T16:41:29.928Z,7.05
2022-08-28T16:43:59.836Z,7.45
2022-08-28T16:46:28.224Z,7.28
2022-08-28T16:48:56.168Z,6.88
2022-08-28T16:51:27.502Z,10.02
2022-08-28T16:53:56.699Z,7.60
2022-08-28T16:56:25.006Z,6.93
2022-08-28T16:58:53.063Z,6.88
2022-08-28T17:01:24.203Z,6.90
2022-08-28T17:03:55.622Z,7.40
2022-08-28T17:06:29.792Z,6.95
2022-08-28T17:08:59.369Z,7.55
2022-08-28T17:11:28.418Z,7.25
2022-08-28T17:13:57.025Z,7.88
2022-08-28T17:16:26.060Z,7.40
2022-08-28T17:18:54.174Z,7.65
2022-08-28T17:21:42.085Z,8.27
2022-08-28T17:24:12.585Z,7.28
2022-08-28T17:26:41.908Z,7.55
2022-08-28T17:29:10.014Z,7.65
2022-08-28T17:31:38.443Z,8.27
2022-08-28T17:34:07.586Z,7.68
2022-08-28T17:36:37.998Z,8.43
2022-08-28T17:39:09.286Z,8.18
2022-08-28T17:41:37.240Z,8.65
2022-08-28T17:44:06.030Z,8.43
2022-08-28T17:46:37.734Z,9.40
2022-08-28T17:49:07.533Z,8.25
2022-08-28T17:51:43.295Z,8.30
2022-08-28T17:54:18.348Z,8.55
2022-08-28T17:56:46.689Z,8.10
2022-08-28T17:59:15.243Z,7.45
2022-08-28T18:01:44.980Z,6.90
2022-08-28T18:04:16.977Z,6.57
2022-08-28T18:06:46.681Z,6.45
2022-08-28T18:09:14.952Z,6.55
2022-08-28T18:11:43.348Z,5.82
2022-08-28T18:14:11.615Z,6.18
2022-08-28T18:16:40.056Z,6.20
2022-08-28T18:19:10.120Z,5.90
2022-08-28T18:21:39.136Z,6.20
2022-08-28T18:24:07.789Z,6.90
2022-08-28T18:26:35.599Z,6.70
2022-08-28T18:29:03.251Z,6.93
2022-08-28T18:31:33.943Z,6.57
2022-08-28T18:34:02.889Z,7.10
2022-08-28T18:36:42.849Z,6.57
2022-08-28T18:39:10.893Z,7.05
2022-08-28T18:41:43.892Z,7.72
2022-08-28T18:44:14.635Z,5.90
2022-08-28T18:46:43.120Z,6.38
2022-08-28T18:49:11.743Z,6.60
2022-08-28T18:51:41.959Z,6.45
2022-08-28T18:54:10.626Z,7.40
2022-08-28T18:56:40.192Z,5.93
2022-08-28T18:59:09.427Z,6.57
2022-08-28T19:01:38.163Z,5.95
2022-08-28T19:04:06.708Z,6.82
2022-08-28T19:06:35.602Z,6.05
2022-08-28T19:09:05.674Z,6.97
2022-08-28T19:11:35.792Z,6.13
2022-08-28T19:14:04.170Z,6.38
2022-08-28T19:16:32.654Z,6.18
2022-08-28T19:19:02.150Z,5.68
2022-08-28T19:21:30.422Z,5.30
2022-08-28T19:23:58.490Z,5.78
2022-08-28T19:26:27.485Z,5.68
2022-08-28T19:28:55.630Z,5.40
2022-08-28T19:31:24.912Z,5.38
2022-08-28T19:33:52.949Z,5.45
2022-08-28T19:36:21.472Z,5.45
2022-08-28T19:38:50.183Z,5.28
2022-08-28T19:41:17.939Z,5.68
2022-08-28T19:43:45.715Z,8.20
2022-08-28T19:46:20.023Z,6.38
2022-08-28T19:48:52.792Z,5.10
2022-08-28T19:51:24.038Z,4.63
2022-08-28T19:53:57.996Z,3.90
2022-08-28T19:56:30.334Z,4.05
2022-08-28T19:59:00.517Z,4.00
2022-08-28T20:01:33.093Z,3.80
2022-08-28T20:04:01.551Z,3.70
2022-08-28T20:06:32.477Z,3.17
2022-08-28T20:09:01.369Z,3.15
2022-08-28T20:11:30.694Z,3.70
2022-08-28T20:14:04.858Z,3.50
2022-08-28T20:16:38.757Z,3.47
2022-08-28T20:19:07.930Z,3.42
2022-08-28T20:21:38.339Z,3.45
2022-08-28T20:24:09.379Z,3.80
2022-08-28T20:26:37.875Z,3.63
2022-08-28T20:29:07.010Z,3.72
2022-08-28T20:31:37.675Z,3.35
2022-08-28T20:34:05.430Z,3.42
2022-08-28T20:36:33.533Z,3.15
2022-08-28T20:39:04.497Z,3.13
2022-08-28T20:41:33.250Z,3.75
2022-08-28T20:44:06.294Z,3.67
2022-08-28T20:46:40.030Z,3.83
2022-08-28T20:49:13.108Z,3.30
2022-08-28T20:52:00.868Z,3.83
2022-08-28T20:54:37.890Z,3.15
2022-08-28T20:57:08.501Z,3.70
2022-08-28T20:59:39.925Z,3.60
2022-08-28T21:02:19.379Z,3.40
2022-08-28T21:04:47.759Z,3.33
2022-08-28T21:07:17.566Z,3.60
2022-08-28T21:10:05.283Z,3.60
2022-08-28T21:12:33.915Z,3.55
2022-08-28T21:15:01.674Z,3.40
2022-08-28T21:17:30.778Z,3.40
2022-08-28T21:20:10.274Z,3.40
2022-08-28T21:22:39.086Z,3.75
2022-08-28T21:25:09.325Z,3.63
2022-08-28T21:27:38.526Z,4.10
2022-08-28T21:30:07.475Z,4.05
2022-08-28T21:32:36.247Z,3.70
2022-08-28T21:35:07.050Z,3.88
2022-08-28T21:37:35.055Z,3.95
2022-08-28T21:40:04.884Z,3.80
2022-08-28T21:42:32.767Z,3.67
2022-08-28T21:45:00.738Z,4.43
2022-08-28T21:47:30.115Z,4.18
2022-08-28T21:49:58.855Z,4.38
2022-08-28T21:52:29.865Z,6.72
2022-08-28T21:55:03.366Z,3.97
2022-08-28T21:57:32.282Z,3.92
2022-08-28T22:00:00.275Z,3.67
2022-08-28T22:02:28.244Z,3.38
2022-08-28T22:04:56.009Z,4.13
2022-08-28T22:07:23.967Z,3.60
2022-08-28T22:09:51.935Z,3.47
2022-08-28T22:12:19.671Z,5.30
2022-08-28T22:14:47.713Z,5.30
2022-08-28T22:17:16.262Z,4.40
2022-08-28T22:19:46.569Z,4.00
2022-08-28T22:22:34.221Z,4.53
2022-08-28T22:25:02.145Z,4.20
2022-08-28T22:27:32.000Z,4.28
2022-08-28T22:29:59.936Z,4.30
2022-08-28T22:32:28.020Z,4.50
2022-08-28T22:34:55.976Z,4.28
2022-08-28T22:37:23.814Z,4.85
2022-08-28T22:39:51.457Z,4.45
2022-08-28T22:42:19.666Z,4.55
2022-08-28T22:44:47.438Z,5.22
2022-08-28T22:47:15.077Z,4.70
2022-08-28T22:49:43.302Z,4.50
2022-08-28T22:52:11.750Z,4.78
2022-08-28T22:54:39.771Z,4.63
2022-08-28T22:57:07.645Z,5.13
2022-08-28T22:59:35.417Z,4.80
2022-08-28T23:02:03.750Z,4.85
2022-08-28T23:04:31.701Z,4.50
2022-08-28T23:06:59.393Z,4.93
2022-08-28T23:09:27.680Z,4.95
2022-08-28T23:11:55.510Z,4.85
2022-08-28T23:14:27.713Z,4.18
2022-08-28T23:16:55.991Z,4.53
2022-08-28T23:19:24.531Z,4.88
2022-08-28T23:21:52.459Z,5.18
2022-08-28T23:24:20.501Z,5.25
2022-08-28T23:26:48.533Z,5.53
2022-08-28T23:29:16.346Z,5.30
2022-08-28T23:31:44.067Z,6.47
2022-08-28T23:34:12.207Z,6.53
2022-08-28T23:36:42.963Z,7.00
2022-08-28T23:39:11.407Z,7.20
2022-08-28T23:41:39.868Z,7.80
2022-08-28T23:44:09.185Z,7.40
2022-08-28T23:46:41.082Z,7.63
2022-08-28T23:49:10.903Z,8.18
2022-08-28T23:51:39.604Z,8.52
2022-08-28T23:54:08.648Z,8.70
2022-08-28T23:56:37.168Z,8.60
2022-08-28T23:59:06.249Z,10.02
